createdAt,value
2019-04-07T00:09:50.321Z,98509.52
2019-04-07T00:12:22.744Z,98512.59
2019-04-07T00:15:32.108Z,98510.95
2019-04-07T00:21:13.787Z,98502.26
2019-04-07T00:23:58.310Z,98497.81
2019-04-07T00:29:49.444Z,98510.31
2019-04-07T00:38:30.501Z,98504.73
2019-04-07T00:41:02.980Z,98506.20
2019-04-07T00:43:53.131Z,98510.76
2019-04-07T00:46:24.376Z,98515.28
2019-04-07T00:55:14.760Z,98511.33
2019-04-07T00:57:45.641Z,98511.33
2019-04-07T01:03:18.412Z,98513.20
2019-04-07T01:05:49.614Z,98517.51
2019-04-07T01:08:39.854Z,98526.11
2019-04-07T01:14:13.605Z,98522.52
2019-04-07T01:16:57.072Z,98522.78
2019-04-07T01:19:47.355Z,98522.78
2019-04-07T01:25:27.303Z,98521.56
2019-04-07T01:27:58.638Z,98521.56
2019-04-07T01:30:50.193Z,98524.17
2019-04-07T01:36:41.281Z,98523.03
2019-04-07T01:39:32.449Z,98526.36
2019-04-07T01:42:41.164Z,98526.36
2019-04-07T01:45:51.209Z,98533.44
2019-04-07T01:49:03.786Z,98528.01
2019-04-07T01:52:28.836Z,98528.01
2019-04-07T01:55:24.771Z,98532.36
2019-04-07T01:58:17.478Z,98525.50
2019-04-07T02:01:29.652Z,98530.00
2019-04-07T02:04:46.597Z,98523.84
2019-04-07T02:08:01.252Z,98526.11
2019-04-07T02:10:56.146Z,98528.80
2019-04-07T02:14:07.024Z,98528.76
2019-04-07T02:20:50.807Z,98528.66
2019-04-07T02:24:01.232Z,98534.04
2019-04-07T02:30:41.550Z,98534.55
2019-04-07T02:33:54.430Z,98532.13
2019-04-07T02:36:48.388Z,98531.93
2019-04-07T02:42:58.962Z,98527.07
2019-04-07T02:46:10.925Z,98524.53
2019-04-07T02:49:00.716Z,98526.40
2019-04-07T02:52:11.969Z,98523.77
2019-04-07T02:55:03.296Z,98528.62
2019-04-07T02:58:12.293Z,98533.47
2019-04-07T03:00:54.122Z,98538.72
2019-04-07T03:03:44.096Z,98536.69
2019-04-07T03:06:54.737Z,98546.20
2019-04-07T03:15:57.816Z,98549.78
2019-04-07T03:19:11.736Z,98546.67
2019-04-07T03:22:21.206Z,98554.17
2019-04-07T03:25:15.986Z,98555.51
2019-04-07T03:28:37.614Z,98555.51
2019-04-07T03:31:36.633Z,98555.51
2019-04-07T03:37:34.472Z,98550.24
2019-04-07T03:46:36.496Z,98551.02
2019-04-07T03:49:47.734Z,98553.29
2019-04-07T03:52:58.479Z,98550.77
2019-04-07T03:55:49.555Z,98550.77
2019-04-07T03:58:58.340Z,98542.95
2019-04-07T04:01:48.104Z,98542.95
2019-04-07T04:04:56.067Z,98549.14
2019-04-07T04:07:45.983Z,98555.15
2019-04-07T04:10:55.584Z,98554.84
2019-04-07T04:14:04.393Z,98551.47
2019-04-07T04:16:54.729Z,98550.16
2019-04-07T04:19:27.012Z,98550.84
2019-04-07T04:22:16.104Z,98550.69
2019-04-07T04:24:55.569Z,98549.65
2019-04-07T04:27:47.017Z,98550.63
2019-04-07T04:30:17.483Z,98550.63
2019-04-07T04:35:57.534Z,98555.64
2019-04-07T04:38:46.886Z,98550.61
2019-04-07T04:41:18.966Z,98553.63
2019-04-07T04:44:11.623Z,98553.56
2019-04-07T04:46:42.650Z,98562.72
2019-04-07T04:49:33.794Z,98556.80
2019-04-07T04:52:05.238Z,98565.69
2019-04-07T04:54:57.141Z,98560.47
2019-04-07T04:57:40.489Z,98556.56
2019-04-07T05:00:30.712Z,98561.02
2019-04-07T05:03:21.567Z,98561.77
2019-04-07T05:06:13.292Z,98560.49
2019-04-07T05:09:06.887Z,98574.50
2019-04-07T05:11:58.707Z,98574.50
2019-04-07T05:17:52.026Z,98584.30
2019-04-07T05:20:23.185Z,98584.09
2019-04-07T05:22:54.470Z,98584.61
2019-04-07T05:25:28.360Z,98586.97
2019-04-07T05:28:19.126Z,98589.93
2019-04-07T05:31:03.525Z,98594.90
2019-04-07T05:33:47.865Z,98591.16
2019-04-07T05:36:37.886Z,98594.53
2019-04-07T05:42:18.897Z,98590.73
2019-04-07T05:45:10.037Z,98598.78
2019-04-07T05:50:43.867Z,98603.59
2019-04-07T05:53:28.979Z,98605.98
2019-04-07T05:58:52.937Z,98621.25
2019-04-07T06:07:16.132Z,98637.33
2019-04-07T06:10:06.755Z,98628.02
2019-04-07T06:12:56.518Z,98635.50
2019-04-07T06:15:28.173Z,98638.02
2019-04-07T06:18:18.487Z,98639.14
2019-04-07T06:21:14.118Z,98642.53
2019-04-07T06:24:06.364Z,98633.92
2019-04-07T06:26:37.217Z,98634.74
2019-04-07T06:29:07.654Z,98633.13
2019-04-07T06:31:41.436Z,98643.77
2019-04-07T06:34:32.627Z,98640.20
2019-04-07T06:37:05.724Z,98637.77
2019-04-07T06:39:54.977Z,98646.75
2019-04-07T06:42:26.719Z,98645.40
2019-04-07T06:48:04.428Z,98645.91
2019-04-07T06:51:12.179Z,98653.00
2019-04-07T06:57:41.686Z,98649.75
2019-04-07T07:00:35.295Z,98651.87
2019-04-07T07:03:43.250Z,98662.75
2019-04-07T07:06:52.572Z,98661.13
2019-04-07T07:10:00.986Z,98670.07
2019-04-07T07:12:50.948Z,98662.46
2019-04-07T07:15:40.061Z,98666.53
2019-04-07T07:18:32.261Z,98672.45
2019-04-07T07:21:43.705Z,98669.45
2019-04-07T07:24:15.688Z,98667.29
2019-04-07T07:27:07.661Z,98669.59
2019-04-07T07:29:37.277Z,98665.95
2019-04-07T07:32:08.172Z,98667.61
2019-04-07T07:34:41.315Z,98668.84
2019-04-07T07:37:30.186Z,98675.53
2019-04-07T07:40:34.059Z,98681.39
2019-04-07T07:43:09.898Z,98671.61
2019-04-07T07:45:42.960Z,98670.84
2019-04-07T07:48:50.050Z,98673.80
2019-04-07T07:51:22.487Z,98674.89
2019-04-07T07:54:31.902Z,98684.69
2019-04-07T07:57:04.957Z,98678.48
2019-04-07T08:00:14.571Z,98679.00
2019-04-07T08:06:12.603Z,98680.70
2019-04-07T08:12:11.583Z,98696.70
2019-04-07T08:18:24.999Z,98698.00
2019-04-07T08:21:08.698Z,98695.34
2019-04-07T08:23:57.886Z,98693.17
2019-04-07T08:26:48.718Z,98692.38
2019-04-07T08:29:39.550Z,98690.20
2019-04-07T08:32:09.827Z,98692.92
2019-04-07T08:34:40.410Z,98687.48
2019-04-07T08:37:14.424Z,98694.82
2019-04-07T08:40:22.892Z,98691.27
2019-04-07T08:43:12.608Z,98695.88
2019-04-07T08:46:06.116Z,98697.81
2019-04-07T08:51:54.950Z,98699.97
2019-04-07T08:54:25.396Z,98707.88
2019-04-07T08:57:14.292Z,98702.45
2019-04-07T09:00:06.250Z,98705.41
2019-04-07T09:05:38.840Z,98698.06
2019-04-07T09:08:09.019Z,98698.06
2019-04-07T09:16:54.933Z,98696.63
2019-04-07T09:19:44.335Z,98696.61
2019-04-07T09:22:56.681Z,98704.43
2019-04-07T09:25:46.671Z,98697.73
2019-04-07T09:29:21.016Z,98702.61
2019-04-07T09:32:02.125Z,98708.69
2019-04-07T09:35:13.053Z,98671.73
2019-04-07T09:38:24.947Z,98689.88
2019-04-07T09:41:44.008Z,98697.34
2019-04-07T09:44:37.617Z,98693.27
2019-04-07T09:47:46.840Z,98692.63
2019-04-07T09:50:35.406Z,98694.73
2019-04-07T09:54:03.080Z,98698.25
2019-04-07T09:56:56.215Z,98703.19
2019-04-07T10:00:06.752Z,98712.06
2019-04-07T10:02:47.006Z,98701.64
2019-04-07T10:05:40.217Z,98700.70
2019-04-07T10:08:29.590Z,98707.91
2019-04-07T10:11:21.950Z,98699.69
2019-04-07T10:17:37.243Z,98693.39
2019-04-07T10:23:21.980Z,98687.70
2019-04-07T10:26:11.720Z,98691.45
2019-04-07T10:29:12.236Z,98690.67
2019-04-07T10:32:24.730Z,98684.84
2019-04-07T10:35:33.528Z,98692.52
2019-04-07T10:41:27.274Z,98701.34
2019-04-07T10:44:44.679Z,98685.25
2019-04-07T10:47:55.167Z,98692.51
2019-04-07T10:50:36.721Z,98681.86
2019-04-07T10:53:47.292Z,98680.30
2019-04-07T10:56:40.011Z,98679.69
2019-04-07T10:59:30.808Z,98685.83
2019-04-07T11:02:23.753Z,98686.48
2019-04-07T11:05:33.523Z,98689.59
2019-04-07T11:08:43.851Z,98688.25
2019-04-07T11:11:35.970Z,98693.80
2019-04-07T11:14:41.722Z,98694.89
2019-04-07T11:17:39.537Z,98694.89
2019-04-07T11:20:30.160Z,98688.42
2019-04-07T11:23:54.445Z,98682.64
2019-04-07T11:26:31.974Z,98683.50
2019-04-07T11:29:42.678Z,98682.57
2019-04-07T11:39:32.720Z,98679.02
2019-04-07T11:42:42.999Z,98680.30
2019-04-07T11:45:35.239Z,98681.99
2019-04-07T11:48:44.877Z,98674.78
2019-04-07T11:54:44.721Z,98673.20
2019-04-07T12:00:45.209Z,98677.80
2019-04-07T12:03:37.520Z,98677.80
2019-04-07T12:09:30.552Z,98679.17
2019-04-07T12:12:41.959Z,98681.29
2019-04-07T12:15:56.851Z,98677.84
2019-04-07T12:19:08.745Z,98682.48
2019-04-07T12:22:19.540Z,98681.89
2019-04-07T12:28:40.174Z,98677.00
2019-04-07T12:44:15.857Z,98665.16
2019-04-07T12:47:06.576Z,98663.39
2019-04-07T12:50:18.879Z,98667.25
2019-04-07T12:56:38.021Z,98643.53
2019-04-07T13:02:51.656Z,98644.00
2019-04-07T13:05:46.420Z,98644.00
2019-04-07T13:15:52.048Z,98650.66
2019-04-07T13:18:46.662Z,98644.13
2019-04-07T13:21:59.400Z,98646.50
2019-04-07T13:24:48.785Z,98642.25
2019-04-07T13:27:58.858Z,98639.39
2019-04-07T13:34:08.331Z,98639.77
2019-04-07T13:36:58.023Z,98644.44
2019-04-07T13:40:10.050Z,98642.80
2019-04-07T13:43:01.950Z,98639.88
2019-04-07T13:48:59.184Z,98640.54
2019-04-07T13:52:20.837Z,98641.52
2019-04-07T13:54:59.127Z,98641.94
2019-04-07T14:01:23.858Z,98640.80
2019-04-07T14:04:55.725Z,98621.91
2019-04-07T14:07:55.122Z,98635.54
2019-04-07T14:10:55.358Z,98634.30
2019-04-07T14:13:46.998Z,98637.39
2019-04-07T14:16:57.366Z,98638.72
2019-04-07T14:19:47.635Z,98641.05
2019-04-07T14:22:57.793Z,98638.83
2019-04-07T14:26:00.307Z,98633.45
2019-04-07T14:32:18.482Z,98638.38
2019-04-07T14:38:08.904Z,98628.33
2019-04-07T14:41:15.933Z,98637.68
2019-04-07T14:43:55.508Z,98636.56
2019-04-07T14:47:06.481Z,98635.78
2019-04-07T14:50:00.560Z,98630.91
2019-04-07T14:53:10.991Z,98630.91
2019-04-07T14:56:04.607Z,98641.94
2019-04-07T14:59:12.976Z,98628.23
2019-04-07T15:02:04.250Z,98634.33
2019-04-07T15:11:43.327Z,98641.15
2019-04-07T15:14:19.121Z,98638.48
2019-04-07T15:17:14.559Z,98638.05
2019-04-07T15:19:46.237Z,98638.05
2019-04-07T15:22:22.632Z,98641.89
2019-04-07T15:28:17.478Z,98636.78
2019-04-07T15:31:08.661Z,98636.05
2019-04-07T15:37:24.720Z,98637.59
2019-04-07T15:40:15.299Z,98633.80
2019-04-07T15:42:50.545Z,98635.17
2019-04-07T15:55:05.186Z,98641.27
2019-04-07T15:57:38.037Z,98644.20
2019-04-07T16:00:16.539Z,98648.41
2019-04-07T16:02:52.643Z,98647.70
2019-04-07T16:08:27.889Z,98655.31
2019-04-07T16:11:17.749Z,98657.45
2019-04-07T16:13:50.420Z,98655.34
2019-04-07T16:16:26.540Z,98659.73
2019-04-07T16:18:55.824Z,98659.73
2019-04-07T16:21:46.513Z,98652.31
2019-04-07T16:24:37.414Z,98664.20
2019-04-07T16:30:28.324Z,98667.50
2019-04-07T16:32:50.120Z,98665.23
2019-04-07T16:41:53.403Z,98671.25
2019-04-07T16:44:45.971Z,98678.69
2019-04-07T16:47:42.201Z,98680.97
2019-04-07T16:50:18.157Z,98689.25
2019-04-07T16:53:28.131Z,98682.38
2019-04-07T16:56:20.676Z,98685.52
2019-04-07T16:58:50.837Z,98686.11
2019-04-07T17:04:53.875Z,98684.42
2019-04-07T17:07:47.296Z,98684.97
2019-04-07T17:10:37.874Z,98675.19
2019-04-07T17:13:16.970Z,98698.63
2019-04-07T17:16:00.648Z,98691.02
2019-04-07T17:21:53.432Z,98679.11
2019-04-07T17:24:28.632Z,98679.11
2019-04-07T17:27:18.254Z,98701.34
2019-04-07T17:30:10.098Z,98705.84
2019-04-07T17:32:50.734Z,98708.91
2019-04-07T17:38:24.873Z,98705.16
2019-04-07T17:41:18.492Z,98705.65
2019-04-07T17:47:37.784Z,98710.31
2019-04-07T17:50:47.673Z,98710.26
2019-04-07T17:53:57.362Z,98719.94
2019-04-07T17:57:06.872Z,98725.16
2019-04-07T17:59:56.661Z,98730.23
2019-04-07T18:03:09.721Z,98737.36
2019-04-07T18:06:03.804Z,98731.72
2019-04-07T18:09:19.666Z,98736.08
2019-04-07T18:12:25.768Z,98741.34
2019-04-07T18:15:36.664Z,98738.91
2019-04-07T18:21:44.946Z,98741.91
2019-04-07T18:24:21.373Z,98754.62
2019-04-07T18:27:14.185Z,98756.61
2019-04-07T18:30:03.442Z,98754.92
2019-04-07T18:33:16.346Z,98755.48
2019-04-07T18:36:05.664Z,98763.66
2019-04-07T18:39:18.222Z,98760.13
2019-04-07T18:45:12.183Z,98765.66
2019-04-07T18:48:02.297Z,98775.83
2019-04-07T18:51:33.588Z,98772.25
2019-04-07T18:54:24.851Z,98787.80
2019-04-07T18:57:33.592Z,98778.65
2019-04-07T19:00:24.465Z,98788.90
2019-04-07T19:03:33.959Z,98793.77
2019-04-07T19:06:23.698Z,98802.20
2019-04-07T19:09:33.196Z,98786.47
2019-04-07T19:12:23.007Z,98797.36
2019-04-07T19:15:37.090Z,98794.91
2019-04-07T19:18:27.135Z,98805.22
2019-04-07T19:21:37.647Z,98802.56
2019-04-07T19:24:30.167Z,98799.90
2019-04-07T19:31:00.494Z,98810.27
2019-04-07T19:34:09.882Z,98805.94
2019-04-07T19:37:22.441Z,98805.39
2019-04-07T19:40:18.781Z,98813.30
2019-04-07T19:42:55.134Z,98813.30
2019-04-07T19:46:04.883Z,98814.66
2019-04-07T19:49:07.860Z,98814.94
2019-04-07T19:52:07.069Z,98816.02
2019-04-07T19:55:14.964Z,98817.61
2019-04-07T19:58:26.361Z,98811.40
2019-04-07T20:01:29.153Z,98819.55
2019-04-07T20:04:37.411Z,98819.55
2019-04-07T20:07:30.169Z,98819.28
2019-04-07T20:10:39.275Z,98815.20
2019-04-07T20:13:42.659Z,98824.09
2019-04-07T20:19:22.207Z,98823.27
2019-04-07T20:22:24.963Z,98823.27
2019-04-07T20:25:37.897Z,98821.62
2019-04-07T20:28:49.879Z,98819.69
2019-04-07T20:31:58.567Z,98821.04
2019-04-07T20:35:08.666Z,98818.57
2019-04-07T20:38:19.305Z,98823.75
2019-04-07T20:41:46.978Z,98822.94
2019-04-07T20:44:35.343Z,98821.33
2019-04-07T20:47:44.580Z,98816.96
2019-04-07T20:50:34.270Z,98821.58
2019-04-07T20:53:33.608Z,98822.16
2019-04-07T20:56:44.605Z,98824.34
2019-04-07T21:00:03.691Z,98821.38
2019-04-07T21:03:14.130Z,98821.13
2019-04-07T21:06:10.514Z,98822.45
2019-04-07T21:08:49.676Z,98827.00
2019-04-07T21:11:53.432Z,98828.88
2019-04-07T21:14:33.605Z,98827.23
2019-04-07T21:17:42.293Z,98833.20
2019-04-07T21:20:32.168Z,98835.08
2019-04-07T21:23:41.255Z,98831.20
2019-04-07T21:26:31.964Z,98836.91
2019-04-07T21:29:43.406Z,98834.42
2019-04-07T21:32:32.065Z,98840.56
2019-04-07T21:35:34.751Z,98827.75
2019-04-07T21:38:23.208Z,98842.76
2019-04-07T21:41:31.477Z,98843.81
2019-04-07T21:44:20.296Z,98829.88
2019-04-07T21:47:29.200Z,98844.06
2019-04-07T21:50:40.044Z,98844.91
2019-04-07T21:53:47.474Z,98840.50
2019-04-07T21:56:36.940Z,98844.20
2019-04-07T21:59:45.768Z,98846.91
2019-04-07T22:05:57.996Z,98856.62
2019-04-07T22:08:47.145Z,98853.91
2019-04-07T22:11:36.777Z,98850.33
2019-04-07T22:14:08.371Z,98865.45
2019-04-07T22:16:40.756Z,98851.39
2019-04-07T22:19:29.926Z,98858.45
2019-04-07T22:22:00.366Z,98857.25
2019-04-07T22:24:38.315Z,98858.09
2019-04-07T22:27:09.126Z,98860.91
2019-04-07T22:30:00.820Z,98859.58
2019-04-07T22:32:31.324Z,98866.40
2019-04-07T22:35:21.026Z,98863.45
2019-04-07T22:37:54.730Z,98866.45
2019-04-07T22:40:43.949Z,98860.40
2019-04-07T22:46:16.534Z,98864.41
2019-04-07T22:51:48.295Z,98860.28
2019-04-07T22:54:18.829Z,98855.28
2019-04-07T22:59:59.992Z,98865.33
2019-04-07T23:02:36.308Z,98863.13
2019-04-07T23:08:14.817Z,98870.34
2019-04-07T23:10:44.965Z,98872.34
2019-04-07T23:13:15.438Z,98872.57
2019-04-07T23:16:10.825Z,98873.81
2019-04-07T23:18:38.202Z,98882.55
2019-04-07T23:21:28.525Z,98875.42
2019-04-07T23:23:58.829Z,98875.64
2019-04-07T23:26:48.790Z,98878.05
2019-04-07T23:29:19.907Z,98893.70
2019-04-07T23:32:09.553Z,98879.47
2019-04-07T23:34:41.537Z,98875.58
2019-04-07T23:37:13.182Z,98867.80
2019-04-07T23:39:43.963Z,98869.33
2019-04-07T23:44:55.816Z,98884.52
2019-04-07T23:50:27.301Z,98889.06
2019-04-07T23:53:09.859Z,98897.00
2019-04-07T23:55:59.552Z,98899.30
2019-04-07T23:58:33.591Z,98911.16
